OIZJ  Jask  Airport

Jask, Iran

Add Bookmark
ICAO OIZJ
Type Airport
Status Operational
Latitude
25° 39' 12" N
25.653601
Longitude
57° 47' 57" E
57.799301
Local (GMT +4.5 ) UTC
May 31, 2016 12:18 pm May 31, 2016 07:48
Sunrise-Sunset Local UTC
Begin Civil Twilight 05:20 am 00:50
Sunrise 05:46 am 01:16
Sunset 07:26 pm 14:56
End Civil Twilight 07:52 pm 15:22
VFR
VFR
MVFR
MVFR
IFR
IFR
LIFR
LIFR
Unknown
Unavailable

Current Weather

METAR Observed MVFR
OIZJ 310700Z 14012KT 8000 NSC 32/30 Q1000 Tue, May 31, 2016 @ 07:00 UTC
(48 Minutes ago)
Marginal Visual Flight Rules
Wind Visibility Conditions
140° at 12 knots (22 kph) 7,998 m
  • No significant weather
Temperatures Readings Precipitation
Current Temp
32°C
90°F
Dewpoint
30°C
86°F
Heat Index
49°C
121°
Humidity 89%
Altimeter 29.53" Hg
Sea Level Pressure 1,000 mb
Field Elevation
4 m
13 ft
None Recorded
-
-

CheckWX.com is intended as a tool to help pilots better visualize weather data. It is not intended as a substitute for an official weather briefing obtained from a Flight Service Station. CheckWX.com does not meet the FAA requirements for an official pre-flight weather briefing. Therefore, it's important that pilots still call and obtain an official FSS pre-flight weather briefing.

© 2007-2016 CheckWX.com
07:48:38 UTC